Portland, OR (97233)

11:50 AM PST on February 14, 2016 (GMT -0800)
Muldokken's house | | Change Station
CLOSE
Current Station
Personal Weather Station
Location: Portland, OR
Elevation: 279 ft
Nearby Weather Stations

Elev 279 ft 45.51 °N, 122.51 °W | Updated 10 minutes ago

Overcast
Overcast
53.2 °F
Feels Like 53.2 °F
N
2.7
Wind Variable Wind from SSE

Today
High -- | Low -- °F
--% Chance of Precip.
Yesterday
High -- | Low -- °F
Precip. -- in
Pressure 30.25 in
Visibility 8.0 miles
Clouds Overcast 1400 ft
Dew Point 50 °F
Humidity 90%
Rainfall 0.30 in
Snow Depth Not available.
7:13 AM 5:35 PM
Waxing Crescent, 44% visible
SPECI KTTD 141914Z 22008G17KT 8SM -RA OVC014 13/10 A3025 RMK AO2 RAB07 P0000 T01280100
Pressure 30.25 in
Visibility 8.0 miles
Clouds Overcast 1400 ft
Dew Point 50 °F
Humidity 90%
Rainfall 0.30 in
Snow Depth Not available.
7:13 AM 5:35 PM
Waxing Crescent, 44% visible
SPECI KTTD 141914Z 22008G17KT 8SM -RA OVC014 13/10 A3025 RMK AO2 RAB07 P0000 T01280100

10-Day Weather Forecast

Almanac

Astronomy

Feb. 14, 2016 Rise Set
Actual Time
Civil Twilight
Nautical Twilight
Astronomical Twilight
Moon
Length of Visible Light
Length of Day
Tomorrow will be .
, % of the Moon is Illuminated

Today's Extremes

State Highs State Lows

Community

WunderPhotos

Upload Photos

1,892,879 photos uploaded!

WunderBlog® & News

Nearby

Air Quality

  Air Quality AQ Index Pollutant
Not available.

Snow Depth

Station Depth Elevation

Earthquake Activity

City Distance Mag. Time & Date
Minimum magnitude displayed is 2.5.

Coastal Water Temperatures

Place Temperature

Stations

Nearby Weather Stations

Station Location Temp. Windchill Dew Point Humidity Wind Precip. Elev Updated Type
                   

Watches & Warnings

There are currently no watches in effect.